Time;durP1;ratioP1;P1;durP2;ratioP2;P2;SDS_P1;SDS_P2;PMS_P1;PMS_P2;Temp;Humidity;BMP_temperature;BMP_pressure;BME280_temperature;BME280_humidity;BME280_pressure;Samples;Min_cycle;Max_cycle;Signal;HPM_P1;HPM_P2
2021/01/14 00:02:01;;;;;;;9.85;5.00;;;;;;;23.00;17.08;96878.50;5087953;28;20047;-83
2021/01/14 00:04:27;;;;;;;10.45;5.45;;;;;;;22.96;17.03;96880.66;5070138;28;20048;-83
2021/01/14 00:06:55;;;;;;;9.93;4.90;;;;;;;22.94;16.89;96885.91;5089063;28;20052;-83
2021/01/14 00:09:21;;;;;;;12.18;6.30;;;;;;;22.86;17.06;96874.19;5091742;28;20047;-83
2021/01/14 00:11:47;;;;;;;13.18;6.68;;;;;;;22.78;17.18;96878.47;5089591;28;20476;-83
2021/01/14 00:14:13;;;;;;;14.10;6.28;;;;;;;22.64;17.27;96882.56;5089820;28;20403;-83
2021/01/14 00:16:39;;;;;;;11.98;5.07;;;;;;;22.68;17.32;96883.19;5088745;28;20033;-83
2021/01/14 00:19:06;;;;;;;12.05;4.88;;;;;;;22.89;16.97;96872.50;5087975;28;20028;-83
2021/01/14 00:21:42;;;;;;;11.40;5.53;;;;;;;22.74;17.13;96865.84;5088754;28;20024;-83
2021/01/14 00:24:09;;;;;;;11.02;6.22;;;;;;;22.56;17.29;96870.03;5085267;28;20032;-83
2021/01/14 00:26:35;;;;;;;9.90;5.30;;;;;;;22.48;17.35;96857.53;5089740;28;20023;-83
2021/01/14 00:29:02;;;;;;;7.60;4.45;;;;;;;22.47;17.54;96861.56;5082390;28;20055;-83
2021/01/14 00:31:29;;;;;;;8.65;4.55;;;;;;;22.38;17.51;96855.84;5073243;28;20060;-83
2021/01/14 00:33:55;;;;;;;8.05;4.60;;;;;;;22.52;17.47;96858.16;5084310;28;20036;-83
2021/01/14 00:36:30;;;;;;;7.32;4.40;;;;;;;22.78;17.29;96853.28;5063372;28;20036;-83
2021/01/14 00:39:05;;;;;;;8.20;4.32;;;;;;;22.32;17.73;96851.31;5082174;28;20116;-83
2021/01/14 00:41:37;;;;;;;7.95;4.53;;;;;;;22.57;17.53;96856.81;5081390;28;20116;-83
2021/01/14 00:44:03;;;;;;;8.48;4.13;;;;;;;22.51;17.58;96833.47;5093278;28;20476;-83
2021/01/14 00:46:29;;;;;;;11.05;5.55;;;;;;;22.30;17.85;96845.38;5092864;28;20141;-83
2021/01/14 00:48:55;;;;;;;8.30;4.00;;;;;;;22.49;17.71;96847.13;5065725;28;20036;-83
2021/01/14 00:51:21;;;;;;;5.78;3.53;;;;;;;22.54;17.39;96819.34;5085705;28;20043;-83
2021/01/14 00:53:47;;;;;;;5.18;2.95;;;;;;;22.75;17.36;96845.03;5087337;28;20615;-82
2021/01/14 00:56:13;;;;;;;6.57;3.55;;;;;;;22.75;17.31;96837.41;5090648;28;20498;-83
2021/01/14 00:58:39;;;;;;;4.28;2.63;;;;;;;22.79;17.27;96831.69;5088906;28;20063;-83
2021/01/14 01:01:05;;;;;;;4.68;2.75;;;;;;;22.87;17.27;96830.97;5089858;28;20040;-83
2021/01/14 01:03:31;;;;;;;5.88;3.13;;;;;;;22.99;16.99;96827.31;5073184;28;20065;-83
2021/01/14 01:05:57;;;;;;;3.42;2.75;;;;;;;23.06;17.01;96824.25;5079534;28;20028;-83
2021/01/14 01:08:24;;;;;;;3.15;2.45;;;;;;;23.23;16.84;96820.00;5089475;28;20048;-83
2021/01/14 01:10:50;;;;;;;6.60;3.10;;;;;;;23.26;16.80;96818.31;5088076;28;20068;-83
2021/01/14 01:13:16;;;;;;;4.50;2.70;;;;;;;23.14;16.84;96817.16;5080810;28;20033;-82
2021/01/14 01:15:43;;;;;;;5.43;3.85;;;;;;;23.02;16.77;96822.81;5084186;28;20100;-82
2021/01/14 01:18:09;;;;;;;5.18;2.83;;;;;;;23.05;16.93;96819.13;5091382;28;20491;-83
2021/01/14 01:20:35;;;;;;;3.67;2.90;;;;;;;23.10;16.70;96816.50;5088705;28;20414;-82
2021/01/14 01:23:01;;;;;;;6.18;3.35;;;;;;;23.09;16.60;96817.75;5091594;28;20073;-83
2021/01/14 01:25:27;;;;;;;5.45;3.15;;;;;;;23.16;16.62;96808.28;5083573;28;20029;-82
2021/01/14 01:27:53;;;;;;;4.38;2.92;;;;;;;22.96;16.73;96805.06;5083833;28;20241;-83
2021/01/14 01:30:19;;;;;;;5.60;2.90;;;;;;;22.95;16.66;96809.09;5087107;28;20485;-83
2021/01/14 01:32:48;;;;;;;5.22;2.67;;;;;;;22.46;17.12;96804.06;5086096;28;20036;-83
2021/01/14 01:35:14;;;;;;;5.50;2.70;;;;;;;22.38;17.22;96801.97;5085585;28;20065;-82
2021/01/14 01:37:40;;;;;;;3.75;2.35;;;;;;;22.52;16.70;96807.06;5086114;28;20040;-83
2021/01/14 01:40:07;;;;;;;4.40;2.30;;;;;;;22.59;16.94;96796.38;5086393;28;20503;-83
2021/01/14 01:42:33;;;;;;;4.53;3.10;;;;;;;22.49;16.67;96791.97;5068181;28;20439;-83
2021/01/14 01:45:00;;;;;;;5.70;3.08;;;;;;;22.42;16.89;96789.41;5090337;28;20085;-83
2021/01/14 01:47:32;;;;;;;3.42;2.20;;;;;;;22.37;16.67;96784.41;5085948;28;20123;-83
2021/01/14 01:50:01;;;;;;;3.80;2.65;;;;;;;22.38;16.50;96785.19;5086887;28;20122;-83
2021/01/14 01:52:29;;;;;;;6.55;2.58;;;;;;;22.49;16.54;96788.38;5088728;28;20035;-83
2021/01/14 01:54:56;;;;;;;4.90;2.70;;;;;;;22.43;16.76;96787.38;5088413;28;20028;-83
2021/01/14 01:57:22;;;;;;;4.47;1.95;;;;;;;22.28;17.11;96784.34;5088266;28;20047;-83
2021/01/14 01:59:48;;;;;;;4.25;2.65;;;;;;;22.16;16.93;96790.75;5086642;28;20114;-83
2021/01/14 02:02:25;;;;;;;6.15;2.97;;;;;;;21.86;17.18;96794.16;5065329;28;20492;-83
2021/01/14 02:04:51;;;;;;;4.60;2.65;;;;;;;21.81;17.44;96789.13;5090283;28;20024;-83
2021/01/14 02:07:36;;;;;;;2.58;1.80;;;;;;;21.86;17.36;96796.97;5090172;28;20032;-82
2021/01/14 02:10:28;;;;;;;3.88;2.53;;;;;;;21.87;17.31;96790.13;5087254;28;20403;-83
2021/01/14 02:13:23;;;;;;;4.25;1.88;;;;;;;22.32;17.16;96792.59;5086893;28;20036;-83
2021/01/14 02:15:50;;;;;;;2.35;1.25;;;;;;;22.58;16.99;96788.44;5083402;28;20044;-83
2021/01/14 02:18:18;;;;;;;3.00;1.50;;;;;;;22.64;16.81;96790.22;5065827;28;20033;-83
2021/01/14 02:20:52;;;;;;;2.45;1.77;;;;;;;22.57;16.89;96786.88;5086702;28;20084;-83
2021/01/14 02:23:32;;;;;;;2.63;1.70;;;;;;;22.52;16.86;96793.81;5090202;28;20024;-83
2021/01/14 02:26:20;;;;;;;2.35;1.63;;;;;;;22.68;16.79;96785.28;5086344;28;20027;-83
2021/01/14 02:28:47;;;;;;;3.03;1.55;;;;;;;23.00;16.64;96777.72;5083720;28;20028;-83
2021/01/14 02:31:14;;;;;;;2.13;1.50;;;;;;;22.87;16.72;96780.56;5085815;28;20078;-83
2021/01/14 02:33:41;;;;;;;4.03;1.92;;;;;;;22.76;16.79;96777.41;5062948;28;20036;-83
2021/01/14 02:36:08;;;;;;;4.18;2.33;;;;;;;22.43;16.94;96788.16;5083572;28;20067;-83
2021/01/14 02:38:35;;;;;;;2.92;2.15;;;;;;;22.22;17.28;96776.97;5069654;28;20063;-83
2021/01/14 02:41:01;;;;;;;3.15;1.83;;;;;;;22.09;17.43;96779.81;5089945;28;20051;-83
2021/01/14 02:43:27;;;;;;;2.45;1.92;;;;;;;22.27;17.19;96777.16;5084931;28;20024;-83
2021/01/14 02:45:54;;;;;;;2.60;1.40;;;;;;;22.26;17.30;96781.22;5083008;28;20074;-83
2021/01/14 02:48:26;;;;;;;3.08;2.00;;;;;;;22.54;17.20;96776.63;5085322;28;20064;-83
2021/01/14 02:50:55;;;;;;;2.03;1.50;;;;;;;22.77;16.90;96761.41;5088844;28;20061;-83
2021/01/14 02:53:24;;;;;;;2.50;1.42;;;;;;;22.94;16.80;96768.34;5068775;28;20028;-83
2021/01/14 02:55:51;;;;;;;2.60;1.10;;;;;;;23.27;16.52;96763.84;5086421;28;20074;-83
2021/01/14 02:58:17;;;;;;;2.80;1.60;;;;;;;23.27;16.50;96764.63;5088180;28;20499;-83
2021/01/14 03:00:44;;;;;;;4.07;1.70;;;;;;;23.01;16.61;96765.28;5086856;28;20118;-83
2021/01/14 03:03:10;;;;;;;4.10;1.73;;;;;;;22.51;17.11;96766.31;5083764;28;20150;-83
2021/01/14 03:05:36;;;;;;;3.58;1.40;;;;;;;22.48;17.30;96775.63;5089011;28;20043;-82
2021/01/14 03:08:02;;;;;;;2.90;1.67;;;;;;;22.67;17.05;96774.56;5087479;28;20135;-82
2021/01/14 03:10:28;;;;;;;3.03;1.88;;;;;;;22.62;17.27;96778.72;5088257;28;20055;-83
2021/01/14 03:12:56;;;;;;;3.22;1.90;;;;;;;22.60;17.03;96772.81;5083553;28;20040;-83
2021/01/14 03:15:22;;;;;;;1.88;1.52;;;;;;;22.67;16.96;96766.94;5087859;28;20129;-83
2021/01/14 03:17:49;;;;;;;4.22;2.03;;;;;;;22.80;16.91;96774.50;5088283;28;20040;-83
2021/01/14 03:20:15;;;;;;;2.97;1.70;;;;;;;23.01;16.85;96762.50;5089881;28;20386;-83
2021/01/14 03:22:42;;;;;;;2.85;1.88;;;;;;;23.20;16.55;96761.31;5081948;28;20491;-83
2021/01/14 03:25:11;;;;;;;1.92;1.50;;;;;;;23.41;16.55;96760.50;5087189;28;20541;-83
2021/01/14 03:27:38;;;;;;;2.70;1.67;;;;;;;23.64;16.21;96767.59;5082271;28;20051;-83
2021/01/14 03:30:06;;;;;;;3.75;1.95;;;;;;;23.74;16.09;96766.38;5087656;28;20016;-83
2021/01/14 03:32:32;;;;;;;2.65;1.63;;;;;;;23.80;16.06;96765.31;5092725;28;20039;-83
2021/01/14 03:34:58;;;;;;;4.30;2.22;;;;;;;23.94;16.04;96766.75;5071715;28;20090;-83
2021/01/14 03:37:24;;;;;;;2.65;1.80;;;;;;;23.99;15.99;96757.72;5092935;28;20040;-83
2021/01/14 03:39:51;;;;;;;2.72;1.88;;;;;;;23.93;15.98;96754.75;5067266;28;20072;-83
2021/01/14 03:42:21;;;;;;;2.67;1.92;;;;;;;23.90;15.83;96755.66;5092210;28;20082;-83
2021/01/14 03:44:48;;;;;;;1.98;1.40;;;;;;;23.95;15.81;96749.44;5071336;28;20050;-83
2021/01/14 03:47:14;;;;;;;6.53;2.17;;;;;;;23.97;15.75;96754.56;5090695;28;20016;-83
2021/01/14 03:49:41;;;;;;;2.17;1.23;;;;;;;23.81;16.05;96747.22;5094117;28;20476;-83
2021/01/14 03:52:11;;;;;;;2.55;1.30;;;;;;;23.29;16.51;96750.19;5091357;28;20545;-83
2021/01/14 03:54:38;;;;;;;3.22;2.05;;;;;;;23.32;16.62;96749.22;5086641;28;20031;-83
2021/01/14 03:57:04;;;;;;;3.85;2.58;;;;;;;23.45;16.31;96746.38;5093480;28;20028;-83
2021/01/14 03:59:31;;;;;;;2.92;2.03;;;;;;;23.49;16.42;96750.59;5092032;28;20067;-83
2021/01/14 04:02:06;;;;;;;3.67;2.35;;;;;;;23.34;16.43;96739.16;5089180;28;20107;-83
2021/01/14 04:04:36;;;;;;;3.08;2.25;;;;;;;23.28;16.62;96740.19;5092478;28;20024;-83
2021/01/14 04:07:10;;;;;;;1.75;1.50;;;;;;;23.16;16.77;96741.88;5074571;28;20498;-83
2021/01/14 04:09:37;;;;;;;2.50;2.05;;;;;;;23.05;16.91;96749.13;5089083;28;20043;-83
2021/01/14 04:12:04;;;;;;;2.05;1.70;;;;;;;23.21;16.78;96746.88;5088184;28;20106;-83
2021/01/14 04:14:31;;;;;;;3.17;2.15;;;;;;;23.34;16.43;96747.56;5086545;28;20507;-82
2021/01/14 04:16:57;;;;;;;2.30;1.85;;;;;;;23.36;16.60;96750.69;5086699;28;20390;-83
2021/01/14 04:19:23;;;;;;;3.60;1.95;;;;;;;23.38;16.65;96745.41;5086917;28;20124;-83
2021/01/14 04:21:49;;;;;;;3.35;1.67;;;;;;;23.54;16.33;96752.78;5091277;28;20028;-83
2021/01/14 04:24:15;;;;;;;2.08;1.25;;;;;;;23.61;16.33;96748.91;5091171;28;20442;-82
2021/01/14 04:26:42;;;;;;;2.55;1.35;;;;;;;23.67;16.23;96749.84;5085429;28;20035;-83
2021/01/14 04:29:08;;;;;;;2.70;1.65;;;;;;;23.38;16.50;96722.22;5082647;28;20040;-83
2021/01/14 04:31:35;;;;;;;3.42;1.83;;;;;;;23.51;16.39;96752.91;5086434;28;20563;-83
2021/01/14 04:34:02;;;;;;;4.00;2.33;;;;;;;23.59;16.40;96754.97;5084264;28;20036;-83
2021/01/14 04:36:29;;;;;;;2.92;2.03;;;;;;;23.54;16.29;96755.59;5081673;28;20024;-82
2021/01/14 04:38:56;;;;;;;4.38;2.50;;;;;;;23.61;16.27;96752.50;5076169;28;20043;-83
2021/01/14 04:41:22;;;;;;;5.47;3.45;;;;;;;23.66;16.19;96745.50;5065626;28;20052;-82
2021/01/14 04:43:50;;;;;;;5.43;3.47;;;;;;;23.79;16.16;96746.13;5065776;28;20047;-82
2021/01/14 04:46:17;;;;;;;4.55;2.80;;;;;;;23.88;16.18;96757.38;5069467;28;20398;-82
2021/01/14 04:48:48;;;;;;;5.60;3.05;;;;;;;23.78;16.02;96750.97;5067922;28;20107;-82
2021/01/14 04:51:16;;;;;;;7.18;4.07;;;;;;;23.67;16.35;96755.44;5070217;28;20040;-83
2021/01/14 04:53:44;;;;;;;5.28;3.65;;;;;;;23.42;16.34;96750.88;5065660;28;20435;-83
2021/01/14 04:56:12;;;;;;;4.97;2.95;;;;;;;23.25;16.59;96755.13;5069043;28;20031;-83
2021/01/14 04:58:40;;;;;;;7.78;4.22;;;;;;;22.97;16.82;96754.22;5090788;28;20028;-83
2021/01/14 05:01:19;;;;;;;5.28;3.00;;;;;;;22.60;17.37;96758.81;5069797;28;20059;-83
2021/01/14 05:03:47;;;;;;;5.70;3.05;;;;;;;22.72;17.17;96762.78;5068731;28;20040;-83
2021/01/14 05:06:23;;;;;;;5.75;3.78;;;;;;;22.60;17.11;96758.81;5087037;28;20573;-83
2021/01/14 05:08:51;;;;;;;4.00;2.47;;;;;;;22.52;17.22;96748.31;5090012;28;20032;-83
2021/01/14 05:11:24;;;;;;;3.80;2.35;;;;;;;22.76;17.10;96749.41;5087791;28;20380;-83
2021/01/14 05:13:50;;;;;;;5.65;2.70;;;;;;;22.77;17.08;96751.00;5091128;28;20507;-83
2021/01/14 05:16:16;;;;;;;5.28;3.15;;;;;;;22.16;17.83;96760.00;5080699;28;20028;-83
2021/01/14 05:18:42;;;;;;;3.15;2.15;;;;;;;22.13;17.72;96758.09;5083584;28;20036;-83
2021/01/14 05:21:08;;;;;;;3.97;2.75;;;;;;;22.63;17.39;96760.72;5082637;28;20032;-83
2021/01/14 05:23:35;;;;;;;3.72;1.85;;;;;;;23.03;16.95;96758.00;5083596;28;20040;-83
2021/01/14 05:26:02;;;;;;;2.78;2.20;;;;;;;23.15;16.79;96754.28;5086005;28;20627;-83
2021/01/14 05:28:30;;;;;;;3.55;2.20;;;;;;;23.20;16.76;96761.31;5084359;28;20044;-83
2021/01/14 05:31:19;;;;;;;2.10;1.90;;;;;;;23.19;16.80;96759.78;5086817;28;20024;-83
2021/01/14 05:33:58;;;;;;;2.85;2.00;;;;;;;23.29;16.72;96767.75;5087145;28;20547;-83
2021/01/14 05:36:24;;;;;;;2.97;2.15;;;;;;;23.45;16.68;96758.34;5086439;28;20103;-83
2021/01/14 05:38:51;;;;;;;4.47;2.72;;;;;;;23.46;16.51;96754.31;5089539;28;20031;-83
2021/01/14 05:41:27;;;;;;;1.83;1.70;;;;;;;23.56;16.57;96772.72;5088138;28;20054;-83
2021/01/14 05:43:58;;;;;;;6.80;2.97;;;;;;;23.57;16.46;96773.50;5085250;28;20028;-83
2021/01/14 05:46:27;;;;;;;5.45;2.70;;;;;;;23.63;16.56;96772.41;5089358;28;20039;-83
2021/01/14 05:48:55;;;;;;;3.58;2.08;;;;;;;23.79;16.28;96777.75;5086221;28;20032;-84
2021/01/14 05:51:26;;;;;;;5.30;3.22;;;;;;;23.80;16.22;96782.13;5092313;28;20380;-83
2021/01/14 05:53:53;;;;;;;4.63;2.65;;;;;;;23.86;16.27;96777.47;5071269;28;20033;-84
2021/01/14 05:56:42;;;;;;;4.93;2.65;;;;;;;23.76;16.32;96778.69;5079257;28;20400;-84
2021/01/14 05:59:11;;;;;;;2.65;2.00;;;;;;;23.99;16.17;96789.31;5089435;28;20373;-84
2021/01/14 06:01:51;;;;;;;3.85;3.05;;;;;;;24.02;16.15;96790.41;5082301;28;20108;-84
2021/01/14 06:04:22;;;;;;;9.32;6.03;;;;;;;23.64;16.42;96792.81;5084061;28;20504;-84
2021/01/14 06:06:50;;;;;;;8.77;5.88;;;;;;;23.33;16.59;96798.41;5083969;28;20028;-84
2021/01/14 06:09:18;;;;;;;6.20;4.80;;;;;;;23.06;16.93;96795.47;5085865;28;20487;-84
2021/01/14 06:11:45;;;;;;;6.68;4.32;;;;;;;22.91;17.27;96800.06;5081686;28;20032;-84
2021/01/14 06:14:33;;;;;;;5.88;4.15;;;;;;;22.80;17.32;96797.63;5083207;28;20077;-84
2021/01/14 06:17:04;;;;;;;7.50;4.28;;;;;;;22.78;17.32;96788.91;5088018;28;20515;-82
2021/01/14 06:19:30;;;;;;;;;;;;;;;22.64;17.54;96800.63;5086537;28;20707;-82
2021/01/14 06:21:57;;;;;;;6.82;3.55;;;;;;;23.00;17.10;96809.28;5086385;28;20002;-83
2021/01/14 06:24:28;;;;;;;7.70;3.95;;;;;;;22.73;17.32;96811.13;5083005;28;20468;-83
2021/01/14 06:27:07;;;;;;;6.13;3.80;;;;;;;22.89;17.17;96813.72;5083467;28;20036;-83
2021/01/14 06:29:39;;;;;;;8.48;5.18;;;;;;;22.66;17.42;96809.38;5082961;28;20820;-84
2021/01/14 06:32:10;;;;;;;8.50;5.00;;;;;;;22.49;17.61;96822.72;5089152;28;20515;-83
2021/01/14 06:34:39;;;;;;;6.97;4.35;;;;;;;22.43;17.67;96820.94;5088492;28;20028;-83
2021/01/14 06:37:20;;;;;;;5.30;3.40;;;;;;;22.26;17.82;96827.94;5097400;28;20369;-85
2021/01/14 06:39:52;;;;;;;6.10;3.53;;;;;;;22.38;17.78;96829.94;5089533;28;20101;-84
2021/01/14 06:42:20;;;;;;;4.60;3.38;;;;;;;22.32;17.97;96832.50;5091270;28;20135;-84
2021/01/14 06:44:54;;;;;;;5.82;3.47;;;;;;;21.59;18.44;96830.91;5086475;28;20037;-84
2021/01/14 06:47:44;;;;;;;5.45;3.78;;;;;;;21.22;19.01;96837.28;5084366;28;20499;-83
2021/01/14 06:50:24;;;;;;;4.63;2.40;;;;;;;20.38;19.91;96846.81;5089799;28;20219;-83
2021/01/14 06:53:01;;;;;;;5.60;3.60;;;;;;;19.94;20.54;96845.53;5090587;28;20032;-82
2021/01/14 06:55:30;;;;;;;4.90;3.28;;;;;;;18.88;21.85;96855.47;5086132;28;20071;-82
2021/01/14 06:58:10;;;;;;;4.35;3.03;;;;;;;18.89;22.01;96859.84;5061254;28;20035;-82
2021/01/14 07:00:41;;;;;;;5.43;3.22;;;;;;;18.98;21.96;96864.81;5087785;28;20078;-83
2021/01/14 07:03:16;;;;;;;7.25;3.80;;;;;;;18.63;22.36;96869.88;5080502;28;20443;-83
2021/01/14 07:05:58;;;;;;;6.60;3.70;;;;;;;18.90;22.09;96877.31;5077849;28;20044;-83
2021/01/14 07:08:41;;;;;;;4.60;3.67;;;;;;;17.69;23.59;96886.97;5092662;28;20036;-83
2021/01/14 07:11:17;;;;;;;8.85;4.15;;;;;;;17.48;24.21;96886.50;5088273;28;20027;-83
2021/01/14 07:13:51;;;;;;;7.35;4.32;;;;;;;17.19;24.00;96894.41;5091525;28;20032;-83
2021/01/14 07:16:26;;;;;;;8.98;5.65;;;;;;;16.77;24.72;96898.50;5088436;28;20054;-82
2021/01/14 07:18:52;;;;;;;9.23;5.30;;;;;;;17.04;24.41;96902.13;5073538;28;20048;-82
2021/01/14 07:21:45;;;;;;;9.15;5.20;;;;;;;18.57;22.79;96902.19;5089087;28;20093;-82
2021/01/14 07:24:26;;;;;;;10.02;5.55;;;;;;;19.44;21.48;96898.03;5081373;28;20089;-82
2021/01/14 07:27:02;;;;;;;12.77;7.00;;;;;;;19.17;21.65;96912.09;5090974;28;20035;-82
2021/01/14 07:29:33;;;;;;;11.52;5.95;;;;;;;19.51;21.54;96911.78;5073095;28;20025;-83
2021/01/14 07:32:00;;;;;;;7.05;4.55;;;;;;;19.14;21.76;96912.16;5085485;28;20495;-83
2021/01/14 07:34:35;;;;;;;8.77;5.18;;;;;;;18.72;22.07;96907.47;5073013;28;20479;-82
2021/01/14 07:37:02;;;;;;;9.27;4.50;;;;;;;18.29;22.69;96924.88;5071810;28;20422;-82
2021/01/14 07:39:52;;;;;;;6.50;4.35;;;;;;;19.03;21.84;96929.09;5073900;28;20035;-83
2021/01/14 07:42:32;;;;;;;6.97;4.55;;;;;;;19.71;21.13;96920.09;5074217;28;20031;-83
2021/01/14 07:45:01;;;;;;;10.38;5.57;;;;;;;19.24;21.77;96919.50;5086730;28;20051;-83
2021/01/14 07:47:38;;;;;;;10.07;5.28;;;;;;;19.51;21.38;96925.72;5086233;28;20036;-83
2021/01/14 07:50:20;;;;;;;6.40;4.25;;;;;;;19.73;21.10;96924.03;5077558;28;20484;-83
2021/01/14 07:52:48;;;;;;;9.18;4.70;;;;;;;20.25;20.59;96932.38;5081415;28;20113;-82
2021/01/14 07:55:31;;;;;;;6.75;4.47;;;;;;;18.98;22.00;96931.56;5072355;28;20035;-83
2021/01/14 07:58:13;;;;;;;9.52;4.60;;;;;;;18.05;23.13;96941.94;5073758;28;20032;-82
2021/01/14 08:00:42;;;;;;;6.28;4.20;;;;;;;17.97;23.30;96940.50;5088431;28;20028;-82
2021/01/14 08:03:12;;;;;;;7.70;4.78;;;;;;;18.00;23.23;96946.00;5090049;28;20028;-82
2021/01/14 08:05:58;;;;;;;6.57;4.53;;;;;;;18.63;22.55;96947.72;5086880;28;20476;-82
2021/01/14 08:08:35;;;;;;;7.28;5.20;;;;;;;18.28;23.02;96964.19;5051080;28;20041;-83
2021/01/14 08:11:21;;;;;;;9.75;5.47;;;;;;;18.52;22.85;96969.38;5072769;28;20044;-83
2021/01/14 08:14:18;;;;;;;7.47;5.25;;;;;;;18.53;22.77;96967.34;5083905;28;20086;-82
2021/01/14 08:16:52;;;;;;;10.10;5.78;;;;;;;18.54;22.57;96972.50;5075461;28;20041;-83
2021/01/14 08:19:19;;;;;;;10.60;5.32;;;;;;;18.39;23.17;96976.69;5094477;28;20112;-81
2021/01/14 08:21:47;;;;;;;9.10;6.10;;;;;;;18.20;23.19;96977.44;5085620;28;20123;-80
2021/01/14 08:24:37;;;;;;;10.20;5.60;;;;;;;17.97;23.55;96984.94;5076210;28;20037;-82
2021/01/14 08:27:22;;;;;;;9.80;5.72;;;;;;;17.90;23.82;96983.03;5089653;28;20031;-83
2021/01/14 08:29:56;;;;;;;9.02;5.80;;;;;;;18.34;23.13;96990.31;5095294;28;20039;-82
2021/01/14 08:32:40;;;;;;;10.25;5.78;;;;;;;19.49;21.82;96992.16;5088368;28;20032;-82
2021/01/14 08:35:15;;;;;;;10.18;6.07;;;;;;;18.59;22.68;96999.03;5075939;28;20036;-82
2021/01/14 08:37:46;;;;;;;6.85;4.32;;;;;;;18.14;23.39;96997.75;5087785;28;20044;-83
2021/01/14 08:40:23;;;;;;;9.82;5.15;;;;;;;18.87;22.73;97006.88;5087680;28;20511;-81
2021/01/14 08:43:01;;;;;;;7.70;4.82;;;;;;;19.19;21.89;97003.47;5094502;28;20040;-82
2021/01/14 08:45:28;;;;;;;9.10;5.47;;;;;;;17.88;23.83;97015.97;5088031;28;21851;-82
2021/01/14 08:48:00;;;;;;;11.23;6.57;;;;;;;18.10;23.52;97017.25;5094216;28;20479;-82
2021/01/14 08:50:47;;;;;;;11.43;7.57;;;;;;;17.75;23.85;97026.88;5073938;28;20028;-82
2021/01/14 08:53:36;;;;;;;10.13;6.00;;;;;;;18.36;23.07;97032.34;5094888;28;20052;-82
2021/01/14 08:56:29;;;;;;;9.55;6.20;;;;;;;18.43;22.86;97038.59;5086721;28;20081;-82
2021/01/14 08:59:04;;;;;;;10.10;5.65;;;;;;;18.56;23.04;97039.59;5057845;28;20040;-82
2021/01/14 09:01:32;;;;;;;9.90;5.80;;;;;;;17.73;24.04;97037.63;5088071;28;20495;-83
2021/01/14 09:03:58;;;;;;;8.80;5.68;;;;;;;18.28;23.42;97047.53;5094623;28;20082;-83
2021/01/14 09:06:33;;;;;;;8.38;6.28;;;;;;;17.78;23.81;97055.81;5086413;28;20059;-83
2021/01/14 09:09:02;;;;;;;11.65;6.93;;;;;;;18.53;22.95;97045.19;5090340;28;20024;-85
2021/01/14 09:11:29;;;;;;;9.50;5.65;;;;;;;18.37;23.12;97056.91;5092257;28;20236;-84
2021/01/14 09:14:09;;;;;;;9.63;5.80;;;;;;;17.50;24.24;97067.22;5078666;28;20028;-85
2021/01/14 09:16:36;;;;;;;14.50;7.63;;;;;;;17.20;25.03;97065.94;5070763;28;20024;-84
2021/01/14 09:19:15;;;;;;;12.60;7.47;;;;;;;16.98;25.10;97067.38;5093605;28;20427;-85
2021/01/14 09:21:41;;;;;;;9.50;5.68;;;;;;;17.94;24.03;97070.66;5093527;28;20032;-83
2021/01/14 09:24:09;;;;;;;10.80;6.63;;;;;;;17.89;23.98;97075.88;5091247;28;20059;-83
2021/01/14 09:26:38;;;;;;;9.45;5.43;;;;;;;17.12;24.56;97085.88;5088535;28;20020;-83
2021/01/14 09:29:06;;;;;;;9.90;5.80;;;;;;;17.17;24.94;97091.75;5091902;28;20032;-83
2021/01/14 09:31:35;;;;;;;8.75;5.47;;;;;;;17.99;23.88;97080.50;5075413;28;20028;-83
2021/01/14 09:34:02;;;;;;;10.68;6.18;;;;;;;17.58;24.38;97088.94;5094088;28;20051;-83
2021/01/14 09:36:29;;;;;;;6.88;4.57;;;;;;;17.58;23.88;97093.72;5090061;28;20085;-83
2021/01/14 09:38:57;;;;;;;9.75;5.63;;;;;;;17.76;24.15;97097.06;5093357;28;20032;-83
2021/01/14 09:41:35;;;;;;;9.63;5.85;;;;;;;18.03;23.71;97091.56;5088312;28;20039;-83
2021/01/14 09:44:04;;;;;;;8.80;5.88;;;;;;;17.36;24.43;97093.16;5089021;28;20373;-83
2021/01/14 09:46:42;;;;;;;9.30;5.10;;;;;;;17.54;24.48;97101.28;5093500;28;20651;-83
2021/01/14 09:49:17;;;;;;;9.60;6.63;;;;;;;18.12;23.76;97108.50;5091426;28;20157;-83
2021/01/14 09:51:46;;;;;;;9.20;4.93;;;;;;;19.02;22.63;97110.34;5092469;28;20420;-83
2021/01/14 09:54:13;;;;;;;11.85;6.57;;;;;;;18.19;23.36;97103.63;5093881;28;20448;-83
2021/01/14 09:56:43;;;;;;;8.75;5.07;;;;;;;18.45;23.02;97105.69;5093126;28;20037;-83
2021/01/14 09:59:32;;;;;;;10.90;5.53;;;;;;;18.14;23.50;97106.88;5093397;28;20859;-83
2021/01/14 10:02:20;;;;;;;13.55;7.45;;;;;;;16.50;25.56;97114.47;5092612;28;20136;-83
2021/01/14 10:05:06;;;;;;;8.27;5.10;;;;;;;16.62;25.74;97113.22;5086138;28;20044;-83
2021/01/14 10:07:35;;;;;;;7.72;5.03;;;;;;;17.47;24.81;97115.22;5089575;28;20070;-84
2021/01/14 10:10:01;;;;;;;9.82;4.95;;;;;;;18.18;23.86;97129.84;5092436;28;20050;-84
2021/01/14 10:12:32;;;;;;;11.10;5.65;;;;;;;18.63;23.31;97133.19;5086997;28;20075;-84
2021/01/14 10:15:10;;;;;;;10.15;5.65;;;;;;;18.44;23.36;97133.84;5077654;28;20028;-85
2021/01/14 10:17:38;;;;;;;7.70;5.20;;;;;;;18.08;24.21;97132.75;5093878;28;20110;-85
2021/01/14 10:20:06;;;;;;;9.65;4.63;;;;;;;17.76;24.03;97131.16;5090066;28;20379;-84
2021/01/14 10:22:34;;;;;;;6.53;4.32;;;;;;;17.55;24.54;97131.41;5084636;28;20021;-86
2021/01/14 10:25:08;;;;;;;7.35;4.70;;;;;;;17.25;24.82;97129.31;5088333;28;20034;-85
2021/01/14 10:27:35;;;;;;;7.22;4.00;;;;;;;17.17;25.30;97138.13;5073925;28;20496;-85
2021/01/14 10:30:18;;;;;;;10.27;5.45;;;;;;;16.51;25.68;97134.69;5077299;28;20036;-85
2021/01/14 10:32:45;;;;;;;7.07;4.97;;;;;;;17.73;24.62;97136.75;5076507;28;20136;-84
2021/01/14 10:35:25;;;;;;;8.93;5.55;;;;;;;18.13;23.88;97146.19;5072680;28;20070;-84
2021/01/14 10:38:10;;;;;;;8.73;5.13;;;;;;;18.57;22.99;97152.34;5084485;28;20111;-83
2021/01/14 10:40:47;;;;;;;10.35;4.80;;;;;;;18.05;23.92;97150.25;5090589;28;20031;-86
2021/01/14 10:43:14;;;;;;;7.85;4.60;;;;;;;18.32;23.54;97156.66;5087926;28;20033;-85
2021/01/14 10:45:41;;;;;;;10.57;4.95;;;;;;;18.20;23.44;97160.00;5073879;28;20028;-85
2021/01/14 10:48:13;;;;;;;10.85;5.88;;;;;;;17.26;25.01;97163.38;5076726;28;20112;-85
2021/01/14 10:50:46;;;;;;;7.28;4.53;;;;;;;17.61;24.37;97170.59;5082123;28;20094;-85
2021/01/14 10:53:22;;;;;;;6.43;4.40;;;;;;;16.99;25.18;97163.22;5081629;28;20028;-86
2021/01/14 10:55:59;;;;;;;11.50;6.20;;;;;;;16.66;25.80;97171.41;5071614;28;20036;-87
2021/01/14 10:58:25;;;;;;;8.48;4.40;;;;;;;17.25;25.27;97170.13;5084585;28;20035;-84
2021/01/14 11:00:51;;;;;;;6.90;4.38;;;;;;;18.43;23.43;97171.19;5073210;28;20048;-85
2021/01/14 11:03:22;;;;;;;7.15;4.38;;;;;;;19.67;22.03;97179.16;5084361;28;20028;-85
2021/01/14 11:06:01;;;;;;;9.75;4.95;;;;;;;18.58;22.84;97181.72;5090269;28;20433;-85
2021/01/14 11:08:39;;;;;;;8.98;4.95;;;;;;;18.44;23.28;97181.88;5092799;28;20089;-86
2021/01/14 11:11:13;;;;;;;12.15;7.30;;;;;;;17.51;24.58;97182.56;5090530;28;20111;-86
2021/01/14 11:13:46;;;;;;;7.75;4.60;;;;;;;17.65;24.44;97193.53;5089515;28;20035;-87
2021/01/14 11:16:18;;;;;;;9.40;4.75;;;;;;;17.42;24.92;97182.25;5074140;28;20028;-85
2021/01/14 11:18:46;;;;;;;8.45;5.53;;;;;;;16.95;25.48;97190.19;5083735;28;20028;-85
2021/01/14 11:21:14;;;;;;;13.60;7.47;;;;;;;17.53;24.50;97189.31;5091757;28;20024;-85
2021/01/14 11:23:40;;;;;;;8.85;6.07;;;;;;;17.59;24.44;97178.56;5073142;28;20392;-84
2021/01/14 11:26:07;;;;;;;10.52;5.63;;;;;;;17.21;24.93;97180.47;5091938;28;20476;-86
2021/01/14 11:28:41;;;;;;;7.30;4.88;;;;;;;17.80;24.40;97187.44;5062997;28;20044;-86
2021/01/14 11:31:10;;;;;;;9.60;5.53;;;;;;;17.41;24.74;97192.56;5081114;28;20032;-85
2021/01/14 11:33:36;;;;;;;8.43;6.13;;;;;;;15.70;27.18;97207.81;5090829;28;20075;-87
2021/01/14 11:36:04;;;;;;;8.48;4.65;;;;;;;16.90;25.92;97201.72;5058385;28;20066;-87
2021/01/14 11:38:31;;;;;;;10.20;5.85;;;;;;;17.03;25.43;97202.81;5077034;28;20028;-85
2021/01/14 11:40:57;;;;;;;11.45;5.55;;;;;;;16.65;25.77;97197.53;5089815;28;20400;-86
2021/01/14 11:43:23;;;;;;;6.78;4.50;;;;;;;17.53;24.86;97205.16;5081634;28;20028;-86
2021/01/14 11:45:49;;;;;;;9.35;5.95;;;;;;;16.76;25.85;97212.09;5072914;28;20041;-87
2021/01/14 11:48:16;;;;;;;10.30;5.55;;;;;;;17.45;25.00;97212.75;5072819;28;20426;-86
2021/01/14 11:50:42;;;;;;;9.55;7.13;;;;;;;16.80;25.91;97210.13;5080693;28;20506;-85